createdAt,value
2023-02-08T00:07:23.412Z,80.75
2023-02-08T00:17:23.254Z,79.62
2023-02-08T00:27:23.315Z,78.72
2023-02-08T00:37:22.973Z,77.60
2023-02-08T00:47:22.916Z,75.77
2023-02-08T00:57:22.767Z,77.05
2023-02-08T01:07:22.683Z,77.64
2023-02-08T01:17:22.620Z,77.03
2023-02-08T01:27:22.876Z,77.23
2023-02-08T01:37:22.439Z,75.48
2023-02-08T01:47:22.407Z,74.42
2023-02-08T01:57:22.372Z,75.14
2023-02-08T02:07:22.362Z,75.59
2023-02-08T02:17:23.779Z,73.54
2023-02-08T02:27:22.625Z,73.09
2023-02-08T02:37:22.360Z,73.17
2023-02-08T02:47:22.587Z,73.02
2023-02-08T02:57:22.410Z,72.25
2023-02-08T03:07:22.390Z,70.48
2023-02-08T03:17:22.479Z,69.87
2023-02-08T03:27:22.323Z,68.63
2023-02-08T03:37:22.312Z,68.00
2023-02-08T03:47:22.492Z,67.62
2023-02-08T03:57:22.302Z,67.32
2023-02-08T04:07:22.292Z,66.42
2023-02-08T04:17:22.281Z,66.16
2023-02-08T04:27:22.239Z,65.31
2023-02-08T04:37:22.238Z,64.82
2023-02-08T04:47:22.239Z,65.29
2023-02-08T04:57:22.263Z,64.73
2023-02-08T05:07:22.305Z,64.88
2023-02-08T05:17:22.387Z,64.94
2023-02-08T05:27:22.721Z,64.83
2023-02-08T05:37:22.449Z,64.92
2023-02-08T05:47:25.133Z,65.46
2023-02-08T05:57:22.475Z,65.36
2023-02-08T06:07:22.552Z,65.61
2023-02-08T06:17:22.505Z,65.39
2023-02-08T06:27:22.536Z,66.03
2023-02-08T06:37:22.467Z,66.18
2023-02-08T06:47:22.492Z,65.78
2023-02-08T06:57:22.772Z,65.82
2023-02-08T07:07:22.484Z,65.58
2023-02-08T07:17:22.507Z,65.26
2023-02-08T07:27:24.481Z,64.83
2023-02-08T07:37:22.567Z,64.22
2023-02-08T07:47:22.573Z,63.60
2023-02-08T07:57:22.611Z,61.65
2023-02-08T08:07:22.688Z,59.06
2023-02-08T08:17:22.876Z,56.39
2023-02-08T08:27:23.202Z,55.64
2023-02-08T08:37:23.722Z,52.93
2023-02-08T08:47:23.951Z,51.25
2023-02-08T08:57:24.574Z,51.50
2023-02-08T09:07:25.150Z,51.61
2023-02-08T09:17:25.377Z,48.78
2023-02-08T09:27:26.010Z,48.63
2023-02-08T09:37:26.460Z,48.79
2023-02-08T09:47:27.187Z,45.71
2023-02-08T09:57:27.591Z,47.12
2023-02-08T10:07:28.357Z,47.41
2023-02-08T10:17:28.589Z,47.88
2023-02-08T10:27:29.091Z,47.49
2023-02-08T10:37:29.482Z,49.78
2023-02-08T10:47:29.844Z,49.13
2023-02-08T10:57:30.148Z,48.62
2023-02-08T11:07:30.399Z,50.43
2023-02-08T11:17:30.909Z,49.97
2023-02-08T11:27:31.099Z,49.47
2023-02-08T11:37:31.517Z,48.24
2023-02-08T11:47:31.765Z,48.78
2023-02-08T11:57:32.021Z,47.58
2023-02-08T12:07:32.551Z,48.21
2023-02-08T12:17:32.641Z,48.36
2023-02-08T12:27:32.918Z,48.56
2023-02-08T12:37:33.129Z,48.08
2023-02-08T12:47:33.428Z,47.84
2023-02-08T12:57:33.712Z,47.46
2023-02-08T13:07:34.011Z,47.92
2023-02-08T13:17:34.288Z,47.17
2023-02-08T13:27:34.553Z,47.69
2023-02-08T13:37:35.091Z,47.43
2023-02-08T13:47:35.386Z,47.58
2023-02-08T13:57:35.464Z,47.18
2023-02-08T14:07:35.796Z,47.19
2023-02-08T14:17:36.115Z,46.65
2023-02-08T14:27:36.375Z,45.32
2023-02-08T14:37:36.789Z,45.78
2023-02-08T14:47:37.006Z,46.72
2023-02-08T14:57:37.663Z,46.75
2023-02-08T15:07:37.617Z,46.44
2023-02-08T15:17:37.924Z,46.87
2023-02-08T15:27:38.474Z,46.94
2023-02-08T15:37:39.473Z,47.52
2023-02-08T15:47:38.751Z,48.24
2023-02-08T15:57:39.030Z,48.82
2023-02-08T16:07:39.346Z,49.31
2023-02-08T16:17:39.662Z,49.73
2023-02-08T16:27:39.864Z,50.06
2023-02-08T16:37:39.973Z,50.81
2023-02-08T16:47:40.178Z,51.14
2023-02-08T16:57:40.686Z,51.71
2023-02-08T17:07:40.772Z,51.96
2023-02-08T17:17:41.153Z,53.78
2023-02-08T17:27:41.006Z,53.92
2023-02-08T17:37:41.310Z,54.18
2023-02-08T17:47:41.262Z,54.92
2023-02-08T17:57:42.871Z,55.43
2023-02-08T18:07:41.525Z,55.56
2023-02-08T18:17:41.579Z,56.47
2023-02-08T18:27:41.801Z,56.71
2023-02-08T18:37:41.834Z,57.57
2023-02-08T18:47:41.859Z,58.09
2023-02-08T18:57:41.806Z,58.16
2023-02-08T19:07:41.916Z,58.23
2023-02-08T19:17:41.848Z,58.18
2023-02-08T19:27:41.985Z,58.31
2023-02-08T19:37:43.365Z,58.97
2023-02-08T19:47:51.111Z,59.50
2023-02-08T19:57:41.824Z,59.81
2023-02-08T20:07:43.201Z,60.12
2023-02-08T20:17:42.195Z,61.24
2023-02-08T20:27:42.297Z,62.10
2023-02-08T20:37:42.390Z,63.30
2023-02-08T20:47:46.717Z,64.89
2023-02-08T20:57:43.454Z,65.89
2023-02-08T21:07:42.311Z,66.32
2023-02-08T21:17:42.219Z,67.30
2023-02-08T21:27:42.517Z,68.29
2023-02-08T21:37:42.246Z,68.65
2023-02-08T21:47:42.333Z,69.09
2023-02-08T22:07:42.315Z,70.05
2023-02-08T22:17:42.277Z,69.98
2023-02-08T22:27:42.304Z,70.09
2023-02-08T22:37:42.321Z,70.83
2023-02-08T22:47:42.300Z,70.51
2023-02-08T22:57:42.316Z,70.44
2023-02-08T23:07:42.283Z,70.87
2023-02-08T23:17:42.202Z,70.65
2023-02-08T23:27:42.163Z,70.82
2023-02-08T23:37:42.093Z,71.00
2023-02-08T23:47:42.117Z,72.10
2023-02-08T23:57:42.063Z,72.35
